createdAt,value
2022-12-15T00:04:34.732Z,100540.09
2022-12-15T00:09:55.130Z,100516.09
2022-12-15T00:15:15.074Z,100508.88
2022-12-15T00:20:35.206Z,100498.91
2022-12-15T00:39:38.183Z,100497.34
2022-12-15T00:44:39.999Z,100499.34
2022-12-15T00:50:00.173Z,100506.16
2022-12-15T00:55:20.747Z,100504.16
2022-12-15T01:01:06.847Z,100512.78
2022-12-15T01:06:29.828Z,100520.59
2022-12-15T01:11:49.960Z,100520.38
2022-12-15T01:17:10.242Z,100531.34
2022-12-15T01:22:11.927Z,100538.03
2022-12-15T01:27:14.123Z,100548.00
2022-12-15T01:32:15.743Z,100552.94
2022-12-15T01:37:17.473Z,100559.84
2022-12-15T01:42:19.659Z,100559.09
2022-12-15T01:47:25.080Z,100561.59
2022-12-15T01:52:27.000Z,100561.38
2022-12-15T01:57:32.532Z,100572.44
2022-12-15T02:02:40.164Z,100569.38
2022-12-15T02:07:42.902Z,100560.97
2022-12-15T02:13:07.673Z,100567.19
2022-12-15T02:18:14.921Z,100571.00
2022-12-15T02:23:54.221Z,100567.94
2022-12-15T02:29:20.447Z,100568.56
2022-12-15T02:34:40.289Z,100564.75
2022-12-15T02:39:42.459Z,100570.19
2022-12-15T02:44:52.910Z,100573.13
2022-12-15T02:50:13.131Z,100571.03
2022-12-15T02:55:28.615Z,100577.19
2022-12-15T03:00:34.038Z,100573.22
2022-12-15T03:05:35.853Z,100583.56
2022-12-15T03:10:37.526Z,100588.75
2022-12-15T03:15:39.080Z,100592.94
2022-12-15T03:20:40.969Z,100594.91
2022-12-15T03:25:46.131Z,100588.50
2022-12-15T03:30:51.501Z,100591.97
2022-12-15T03:35:54.714Z,100596.16
2022-12-15T03:40:56.299Z,100589.59
2022-12-15T03:45:57.897Z,100596.38
2022-12-15T03:50:59.601Z,100599.47
2022-12-15T03:56:01.339Z,100604.03
2022-12-15T04:01:30.077Z,100599.34
2022-12-15T04:06:31.982Z,100600.09
2022-12-15T04:11:33.632Z,100592.22
2022-12-15T04:16:35.234Z,100605.03
2022-12-15T04:21:36.978Z,100598.38
2022-12-15T04:26:56.878Z,100595.69
2022-12-15T04:32:17.200Z,100591.22
2022-12-15T04:37:37.223Z,100591.84
2022-12-15T04:43:01.929Z,100599.00
2022-12-15T04:48:22.856Z,100591.84
2022-12-15T04:53:43.069Z,100598.63
2022-12-15T04:59:03.704Z,100601.94
2022-12-15T05:04:24.174Z,100593.97
2022-12-15T05:09:44.685Z,100596.75
2022-12-15T05:15:04.937Z,100606.47
2022-12-15T05:20:26.225Z,100609.03
2022-12-15T05:25:46.495Z,100607.91
2022-12-15T05:31:06.756Z,100619.25
2022-12-15T05:36:08.727Z,100614.34
2022-12-15T05:41:10.342Z,100617.06
2022-12-15T05:46:12.650Z,100622.13
2022-12-15T05:51:15.152Z,100611.66
2022-12-15T05:56:16.742Z,100618.94
2022-12-15T06:01:20.696Z,100622.28
2022-12-15T06:06:22.377Z,100630.41
2022-12-15T06:11:24.183Z,100639.03
2022-12-15T06:16:28.225Z,100641.97
2022-12-15T06:21:35.376Z,100648.75
2022-12-15T06:26:38.588Z,100646.88
2022-12-15T06:31:41.994Z,100644.19
2022-12-15T06:36:44.262Z,100645.91
2022-12-15T06:41:46.595Z,100648.00
2022-12-15T06:46:48.309Z,100648.84
2022-12-15T06:51:49.982Z,100648.97
2022-12-15T06:56:51.845Z,100648.84
2022-12-15T07:01:53.584Z,100649.59
2022-12-15T07:06:56.854Z,100655.28
2022-12-15T07:11:58.456Z,100658.09
2022-12-15T07:17:00.064Z,100662.66
2022-12-15T07:22:01.818Z,100662.66
2022-12-15T07:27:03.550Z,100669.28
2022-12-15T07:32:05.504Z,100680.63
2022-12-15T07:37:07.326Z,100680.88
2022-12-15T07:42:09.036Z,100681.00
2022-12-15T07:47:10.634Z,100682.97
2022-12-15T07:52:14.071Z,100685.91
2022-12-15T07:57:16.239Z,100690.97
2022-12-15T08:02:18.557Z,100693.44
2022-12-15T08:07:20.431Z,100710.69
2022-12-15T08:12:22.004Z,100706.00
2022-12-15T08:17:23.633Z,100704.91
2022-12-15T08:22:25.357Z,100697.75
2022-12-15T08:27:27.362Z,100700.09
2022-12-15T08:32:28.995Z,100698.34
2022-12-15T08:37:30.633Z,100708.34
2022-12-15T08:42:36.543Z,100703.41
2022-12-15T08:47:39.065Z,100709.06
2022-12-15T08:52:55.336Z,100704.63
2022-12-15T08:58:02.551Z,100725.44
2022-12-15T09:03:04.215Z,100725.72
2022-12-15T09:08:06.899Z,100727.19
2022-12-15T09:13:08.694Z,100719.53
2022-12-15T09:18:10.304Z,100725.72
2022-12-15T09:23:11.888Z,100736.81
2022-12-15T09:28:14.564Z,100746.44
2022-12-15T09:33:16.168Z,100750.09
2022-12-15T09:38:17.933Z,100756.75
2022-12-15T09:43:46.207Z,100758.00
2022-12-15T09:48:47.747Z,100755.41
2022-12-15T09:53:57.307Z,100748.34
2022-12-15T09:59:18.012Z,100759.19
2022-12-15T10:04:56.137Z,100755.13
2022-12-15T10:09:59.032Z,100748.81
2022-12-15T10:15:20.143Z,100754.34
2022-12-15T10:20:28.718Z,100753.97
2022-12-15T10:25:31.783Z,100756.69
2022-12-15T10:30:34.468Z,100753.47
2022-12-15T10:35:39.584Z,100758.75
2022-12-15T10:40:55.704Z,100757.78
2022-12-15T10:46:13.521Z,100762.38
2022-12-15T10:51:21.819Z,100754.41
2022-12-15T10:56:32.899Z,100749.03
2022-12-15T11:01:35.670Z,100748.59
2022-12-15T11:06:42.266Z,100740.88
2022-12-15T11:12:06.334Z,100742.81
2022-12-15T11:17:19.279Z,100747.91
2022-12-15T11:22:31.541Z,100747.59
2022-12-15T11:27:37.359Z,100741.59
2022-12-15T11:32:43.042Z,100744.94
2022-12-15T11:37:46.914Z,100742.25
2022-12-15T11:42:50.089Z,100745.28
2022-12-15T11:48:09.845Z,100742.19
2022-12-15T11:53:26.334Z,100756.34
2022-12-15T11:58:59.795Z,100748.25
2022-12-15T12:04:09.382Z,100748.41
2022-12-15T12:09:25.019Z,100753.72
2022-12-15T12:15:03.639Z,100743.16
2022-12-15T12:20:36.169Z,100738.16
2022-12-15T12:25:44.777Z,100736.59
2022-12-15T12:30:48.733Z,100732.31
2022-12-15T12:36:12.950Z,100725.88
2022-12-15T12:41:32.953Z,100729.06
2022-12-15T12:46:42.567Z,100717.75
2022-12-15T12:51:51.708Z,100704.44
2022-12-15T12:56:53.724Z,100707.16
2022-12-15T13:01:57.199Z,100701.44
2022-12-15T13:07:03.223Z,100700.28
2022-12-15T13:12:20.801Z,100693.69
2022-12-15T13:17:42.065Z,100692.09
2022-12-15T13:22:43.762Z,100691.56
2022-12-15T13:27:51.954Z,100696.56
2022-12-15T13:33:13.117Z,100688.97
2022-12-15T13:38:18.527Z,100689.13
2022-12-15T13:43:40.090Z,100678.66
2022-12-15T13:48:45.794Z,100681.81
2022-12-15T13:54:15.526Z,100673.38
2022-12-15T13:59:30.961Z,100662.75
2022-12-15T14:04:32.679Z,100673.63
2022-12-15T14:09:38.505Z,100675.63
2022-12-15T14:14:47.329Z,100679.38
2022-12-15T14:19:51.464Z,100665.31
2022-12-15T14:25:01.058Z,100659.88
2022-12-15T14:30:33.099Z,100651.56
2022-12-15T14:35:44.739Z,100652.44
2022-12-15T14:40:54.233Z,100642.09
2022-12-15T14:46:06.305Z,100640.81
2022-12-15T14:51:11.591Z,100644.38
2022-12-15T14:56:33.526Z,100639.09
2022-12-15T15:01:40.830Z,100645.66
2022-12-15T15:06:45.375Z,100647.66
2022-12-15T15:11:52.813Z,100632.94
2022-12-15T15:17:04.967Z,100643.53
2022-12-15T15:22:26.911Z,100636.06
2022-12-15T15:27:36.228Z,100630.63
2022-12-15T15:32:56.126Z,100632.63
2022-12-15T15:38:04.846Z,100630.94
2022-12-15T15:43:12.491Z,100629.19
2022-12-15T15:48:24.040Z,100619.47
2022-12-15T15:53:26.548Z,100638.38
2022-12-15T15:58:28.186Z,100632.63
2022-12-15T16:03:30.050Z,100633.91
2022-12-15T16:08:35.763Z,100632.22
2022-12-15T16:13:37.954Z,100647.25
2022-12-15T16:18:39.572Z,100649.25
2022-12-15T16:23:44.645Z,100656.69
2022-12-15T16:28:46.312Z,100646.84
2022-12-15T16:33:47.887Z,100641.81
2022-12-15T16:38:52.386Z,100640.53
2022-12-15T16:43:54.178Z,100640.53
2022-12-15T16:48:56.028Z,100642.09
2022-12-15T16:53:57.870Z,100632.06
2022-12-15T16:59:30.859Z,100645.84
2022-12-15T17:04:21.594Z,100654.41
2022-12-15T17:09:25.613Z,100661.28
2022-12-15T17:14:27.436Z,100665.72
2022-12-15T17:19:29.189Z,100663.28
2022-12-15T17:24:30.850Z,100659.84
2022-12-15T17:29:32.834Z,100662.44
2022-12-15T17:34:34.827Z,100663.16
2022-12-15T17:39:37.131Z,100665.44
2022-12-15T17:44:39.927Z,100664.16
2022-12-15T17:49:41.744Z,100664.16
2022-12-15T17:54:43.555Z,100664.41
2022-12-15T17:59:45.430Z,100663.81
2022-12-15T18:04:47.074Z,100662.34
2022-12-15T18:09:50.977Z,100662.06
2022-12-15T18:14:53.277Z,100667.28
2022-12-15T18:19:55.125Z,100667.59
2022-12-15T18:24:56.938Z,100685.09
2022-12-15T18:29:58.613Z,100699.56
2022-12-15T18:35:00.602Z,100700.13
2022-12-15T18:40:04.987Z,100697.88
2022-12-15T18:45:16.509Z,100698.00
2022-12-15T18:50:26.446Z,100707.44
2022-12-15T18:55:31.379Z,100711.44
2022-12-15T19:00:34.789Z,100715.91
2022-12-15T19:05:37.587Z,100710.72
2022-12-15T19:10:52.031Z,100707.81
2022-12-15T19:15:53.846Z,100715.00
2022-12-15T19:21:14.155Z,100725.75
2022-12-15T19:26:15.945Z,100713.47
2022-12-15T19:31:17.645Z,100714.78
2022-12-15T19:36:23.106Z,100717.50
2022-12-15T19:41:24.875Z,100719.78
2022-12-15T19:46:27.397Z,100734.09
2022-12-15T19:51:29.120Z,100732.22
2022-12-15T19:56:31.074Z,100734.22
2022-12-15T20:01:32.789Z,100738.69
2022-12-15T20:06:37.206Z,100747.38
2022-12-15T20:11:40.458Z,100748.72
2022-12-15T20:16:42.168Z,100747.69
2022-12-15T20:21:43.867Z,100742.53
2022-12-15T20:26:46.646Z,100749.09
2022-12-15T20:31:48.410Z,100753.56
2022-12-15T20:36:51.146Z,100764.97
2022-12-15T20:41:53.992Z,100777.19
2022-12-15T20:46:55.617Z,100796.22
2022-12-15T20:51:57.476Z,100788.06
2022-12-15T20:56:59.397Z,100800.09
2022-12-15T21:02:01.329Z,100806.44
2022-12-15T21:07:03.461Z,100819.06
2022-12-15T21:12:20.871Z,100814.06
2022-12-15T21:17:24.314Z,100828.25
2022-12-15T21:22:28.401Z,100830.72
2022-12-15T21:27:30.501Z,100848.34
2022-12-15T21:32:32.277Z,100849.97
2022-12-15T21:37:36.418Z,100852.50
2022-12-15T21:42:39.262Z,100855.47
2022-12-15T21:47:59.644Z,100849.44
2022-12-15T21:53:02.129Z,100865.50
2022-12-15T21:58:16.975Z,100862.78
2022-12-15T22:03:18.761Z,100862.06
2022-12-15T22:08:22.393Z,100858.88
2022-12-15T22:13:24.033Z,100865.03
2022-12-15T22:18:25.779Z,100873.25
2022-12-15T22:23:27.407Z,100871.91
2022-12-15T22:28:29.698Z,100869.88
2022-12-15T22:33:31.774Z,100881.19
2022-12-15T22:38:33.680Z,100889.88
2022-12-15T22:43:40.805Z,100888.81
2022-12-15T22:48:45.604Z,100897.78
2022-12-15T22:53:47.316Z,100896.66
2022-12-15T22:58:52.839Z,100895.19
2022-12-15T23:03:57.700Z,100896.53
2022-12-15T23:08:59.457Z,100906.69
2022-12-15T23:14:01.031Z,100912.38
2022-12-15T23:19:10.376Z,100910.91
2022-12-15T23:24:12.131Z,100904.88
2022-12-15T23:29:18.080Z,100910.31
2022-12-15T23:34:19.660Z,100927.50
2022-12-15T23:39:21.304Z,100924.19
2022-12-15T23:44:23.042Z,100935.31
2022-12-15T23:49:24.722Z,100942.91
2022-12-15T23:54:27.164Z,100941.88
2022-12-15T23:59:28.917Z,100945.63
